createdAt,value
2023-02-25T00:00:13.150Z,713.4
2023-02-25T00:01:15.453Z,713.6
2023-02-25T00:02:18.411Z,713.2
2023-02-25T00:03:20.897Z,713.2
2023-02-25T00:04:22.899Z,713.2
2023-02-25T00:05:25.406Z,713.7
2023-02-25T00:06:27.955Z,713.2
2023-02-25T00:07:30.185Z,713.1
2023-02-25T00:08:32.794Z,713.7
2023-02-25T00:09:35.289Z,713.7
2023-02-25T00:10:37.806Z,713.2
2023-02-25T00:11:40.056Z,713.4
2023-02-25T00:12:42.603Z,713.4
2023-02-25T00:13:45.275Z,713
2023-02-25T00:14:47.777Z,713.7
2023-02-25T00:15:50.291Z,713.3
2023-02-25T00:16:52.968Z,712.9
2023-02-25T00:17:55.543Z,713
2023-02-25T00:18:58.064Z,712.8
2023-02-25T00:19:59.990Z,712.3
2023-02-25T00:21:02.533Z,712.7
2023-02-25T00:22:05.062Z,712.8
2023-02-25T00:23:07.592Z,712.5
2023-02-25T00:25:15.222Z,712
2023-02-25T00:26:17.744Z,711.2
2023-02-25T00:27:20.234Z,711.5
2023-02-25T00:28:22.474Z,711.1
2023-02-25T00:29:25.140Z,710.9
2023-02-25T00:30:27.352Z,710.8
2023-02-25T00:31:30.496Z,711.3
2023-02-25T00:32:33.346Z,711.1
2023-02-25T00:33:35.597Z,711.1
2023-02-25T00:34:38.096Z,711
2023-02-25T00:35:40.320Z,711.1
2023-02-25T00:36:43.158Z,711.3
2023-02-25T00:37:45.406Z,711.4
2023-02-25T00:38:47.915Z,711.3
2023-02-25T00:39:50.122Z,711.4
2023-02-25T00:40:52.709Z,711.6
2023-02-25T00:41:55.236Z,711.2
2023-02-25T00:42:57.759Z,711
2023-02-25T00:44:00.016Z,711.4
2023-02-25T00:45:02.544Z,711.2
2023-02-25T00:46:05.342Z,710.4
2023-02-25T00:47:07.599Z,709.6
2023-02-25T00:48:09.584Z,709.6
2023-02-25T00:50:19.339Z,708.4
2023-02-25T00:51:22.028Z,708.3
2023-02-25T00:52:24.280Z,708.2
2023-02-25T00:53:26.504Z,707.9
2023-02-25T00:54:29.000Z,707
2023-02-25T00:55:31.512Z,707.1
2023-02-25T00:56:34.115Z,707.2
2023-02-25T00:57:36.342Z,707.3
2023-02-25T00:58:38.885Z,707
2023-02-25T00:59:40.603Z,707.6
2023-02-25T01:01:48.357Z,707.6
2023-02-25T01:02:51.411Z,707.8
2023-02-25T01:03:54.430Z,708.1
2023-02-25T01:04:57.549Z,708.1
2023-02-25T01:06:00.241Z,708.6
2023-02-25T01:08:07.548Z,708
2023-02-25T01:09:10.048Z,707.7
2023-02-25T01:10:12.551Z,708.1
2023-02-25T01:11:15.062Z,707.8
2023-02-25T01:12:17.361Z,707.7
2023-02-25T01:13:19.862Z,707.6
2023-02-25T01:14:22.401Z,707.7
2023-02-25T01:15:24.955Z,707.1
2023-02-25T01:16:28.454Z,707.2
2023-02-25T01:17:30.985Z,707.5
2023-02-25T01:18:33.467Z,707.5
2023-02-25T01:19:35.700Z,707.3
2023-02-25T01:20:38.201Z,707.2
2023-02-25T01:21:40.733Z,706.9
2023-02-25T01:22:43.542Z,706.9
2023-02-25T01:23:46.046Z,706.9
2023-02-25T01:24:48.295Z,706.8
2023-02-25T01:25:50.783Z,706.4
2023-02-25T01:26:53.407Z,707
2023-02-25T01:27:56.027Z,707.6
2023-02-25T01:28:58.246Z,707.8
2023-02-25T01:30:00.486Z,707.9
2023-02-25T01:31:03.414Z,708.1
2023-02-25T01:32:07.124Z,707.3
2023-02-25T01:33:09.711Z,707.5
2023-02-25T01:34:12.214Z,707.8
2023-02-25T01:35:14.791Z,708
2023-02-25T01:36:16.752Z,707.6
2023-02-25T01:37:19.265Z,707.9
2023-02-25T01:38:21.781Z,707.4
2023-02-25T01:40:30.119Z,707.3
2023-02-25T01:41:32.495Z,707.3
2023-02-25T01:42:35.016Z,707.4
2023-02-25T01:43:37.626Z,707.5
2023-02-25T01:44:40.135Z,707.4
2023-02-25T01:45:42.654Z,707.3
2023-02-25T01:46:45.477Z,707.9
2023-02-25T01:47:47.716Z,708
2023-02-25T01:48:50.213Z,707.6
2023-02-25T01:49:52.179Z,707.4
2023-02-25T01:50:54.695Z,707.2
2023-02-25T01:51:56.930Z,707.3
2023-02-25T01:52:59.149Z,707.4
2023-02-25T01:54:01.630Z,707.4
2023-02-25T01:55:04.138Z,706.9
2023-02-25T01:56:06.686Z,706.9
2023-02-25T01:57:09.188Z,707
2023-02-25T01:58:11.400Z,706.6
2023-02-25T01:59:14.053Z,706.9
2023-02-25T02:00:16.287Z,706.6
2023-02-25T02:01:19.025Z,706.6
2023-02-25T02:02:21.989Z,707
2023-02-25T02:03:24.194Z,706.7
2023-02-25T02:05:31.822Z,706.2
2023-02-25T02:06:34.323Z,706.8
2023-02-25T02:07:36.834Z,706.9
2023-02-25T02:08:39.321Z,707.5
2023-02-25T02:09:42.024Z,707.2
2023-02-25T02:10:44.551Z,707.3
2023-02-25T02:11:46.794Z,707.2
2023-02-25T02:12:49.309Z,706.7
2023-02-25T02:13:51.580Z,706.6
2023-02-25T02:14:54.186Z,706.9
2023-02-25T02:15:57.076Z,706.8
2023-02-25T02:16:59.594Z,706.6
2023-02-25T02:18:02.236Z,706.6
2023-02-25T02:19:04.929Z,706.9
2023-02-25T02:20:07.436Z,706.7
2023-02-25T02:21:09.968Z,706.5
2023-02-25T02:22:12.493Z,706.7
2023-02-25T02:23:15.000Z,707.2
2023-02-25T02:24:17.512Z,707
2023-02-25T02:25:19.781Z,706.2
2023-02-25T02:26:23.922Z,706.4
2023-02-25T02:27:26.608Z,706.7
2023-02-25T02:28:28.860Z,706.9
2023-02-25T02:29:31.369Z,707.2
2023-02-25T02:30:34.320Z,707.5
2023-02-25T02:31:36.592Z,707.4
2023-02-25T02:32:39.335Z,707.2
2023-02-25T02:33:41.874Z,707.4
2023-02-25T02:34:44.063Z,707.5
2023-02-25T02:35:46.558Z,708
2023-02-25T02:36:48.814Z,707.8
2023-02-25T02:37:51.055Z,707.5
2023-02-25T02:38:53.573Z,706.6
2023-02-25T02:39:56.084Z,706.9
2023-02-25T02:40:58.584Z,706.6
2023-02-25T02:42:01.088Z,706.3
2023-02-25T02:43:03.335Z,705.8
2023-02-25T02:44:05.871Z,705.6
2023-02-25T02:45:08.391Z,705.2
2023-02-25T02:46:11.527Z,705.5
2023-02-25T02:47:14.046Z,706
2023-02-25T02:48:16.531Z,706.1
2023-02-25T02:49:19.046Z,706.5
2023-02-25T02:50:21.272Z,706.3
2023-02-25T02:51:23.799Z,706.2
2023-02-25T02:52:26.286Z,706.3
2023-02-25T02:53:28.813Z,705.9
2023-02-25T02:54:31.328Z,705.8
2023-02-25T02:55:33.820Z,705.8
2023-02-25T02:56:36.344Z,705.4
2023-02-25T02:57:38.856Z,706.1
2023-02-25T02:58:41.069Z,705.2
2023-02-25T02:59:43.885Z,705.8
2023-02-25T03:00:45.744Z,706
2023-02-25T03:01:48.752Z,705.7
2023-02-25T03:02:51.255Z,706.2
2023-02-25T03:03:53.717Z,705.6
2023-02-25T03:04:56.290Z,705.4
2023-02-25T03:05:58.796Z,705.3
2023-02-25T03:07:01.071Z,705.3
2023-02-25T03:08:03.551Z,705.7
2023-02-25T03:09:06.092Z,705.6
2023-02-25T03:10:08.607Z,706.1
2023-02-25T03:11:11.114Z,705.7
2023-02-25T03:12:13.619Z,705.8
2023-02-25T03:13:16.164Z,706.5
2023-02-25T03:14:18.696Z,706.8
2023-02-25T03:15:21.197Z,706.9
2023-02-25T03:16:26.113Z,707
2023-02-25T03:17:28.906Z,706.6
2023-02-25T03:18:31.774Z,706.8
2023-02-25T03:19:34.360Z,706.7
2023-02-25T03:20:36.673Z,707.1
2023-02-25T03:21:39.183Z,707.1
2023-02-25T03:22:41.707Z,706.8
2023-02-25T03:23:44.237Z,706.5
2023-02-25T03:24:46.755Z,706.4
2023-02-25T03:25:49.476Z,706.8
2023-02-25T03:26:51.704Z,706.9
2023-02-25T03:27:54.196Z,706
2023-02-25T03:28:56.718Z,706
2023-02-25T03:29:59.215Z,705.3
2023-02-25T03:31:01.580Z,704.9
2023-02-25T03:32:04.964Z,706
2023-02-25T03:33:07.702Z,706.5
2023-02-25T03:34:09.661Z,706.5
2023-02-25T03:35:12.174Z,705.8
2023-02-25T03:36:14.432Z,705
2023-02-25T03:37:16.951Z,705
2023-02-25T03:38:19.445Z,705.6
2023-02-25T03:39:21.204Z,705.6
2023-02-25T03:40:23.695Z,705.2
2023-02-25T03:41:25.943Z,705.6
2023-02-25T03:42:28.184Z,705.6
2023-02-25T03:43:30.685Z,705.4
2023-02-25T03:44:33.577Z,705.9
2023-02-25T03:45:36.090Z,706
2023-02-25T03:46:38.360Z,705
2023-02-25T03:47:40.876Z,705.5
2023-02-25T03:48:43.495Z,704.8
2023-02-25T03:49:45.994Z,704.5
2023-02-25T03:50:48.196Z,704.7
2023-02-25T03:51:50.727Z,705.3
2023-02-25T03:52:53.220Z,704.5
2023-02-25T03:53:55.696Z,704.6
2023-02-25T03:54:58.087Z,704.7
2023-02-25T03:56:00.614Z,704.1
2023-02-25T03:57:03.148Z,704.2
2023-02-25T03:58:05.374Z,703.8
2023-02-25T03:59:07.887Z,703.8
2023-02-25T04:00:10.388Z,703.9
2023-02-25T04:01:13.813Z,703.7
2023-02-25T04:02:17.804Z,703.9
2023-02-25T04:03:20.346Z,704
2023-02-25T04:04:23.056Z,704.1
2023-02-25T04:05:25.652Z,703.4
2023-02-25T04:06:27.890Z,703.5
2023-02-25T04:07:30.403Z,703.2
2023-02-25T04:08:32.641Z,703.4
2023-02-25T04:09:35.167Z,703.2
2023-02-25T04:10:37.713Z,702.7
2023-02-25T04:11:40.245Z,702.8
2023-02-25T04:12:42.728Z,702.6
2023-02-25T04:13:45.220Z,702.2
2023-02-25T04:14:47.449Z,702.6
2023-02-25T04:15:50.438Z,702.8
2023-02-25T04:16:53.069Z,702.4
2023-02-25T04:17:55.278Z,702.4
2023-02-25T04:18:57.494Z,701.9
2023-02-25T04:20:00.111Z,701.9
2023-02-25T04:21:02.656Z,701.6
2023-02-25T04:22:05.168Z,702.2
2023-02-25T04:23:07.692Z,702
2023-02-25T04:24:09.944Z,702.2
2023-02-25T04:25:12.240Z,702.3
2023-02-25T04:26:14.747Z,702.8
2023-02-25T04:27:17.024Z,703.1
2023-02-25T04:28:19.260Z,702.8
2023-02-25T04:29:21.764Z,702.9
2023-02-25T04:30:24.530Z,702.7
2023-02-25T04:31:27.556Z,703
2023-02-25T04:32:30.707Z,702.3
2023-02-25T04:33:32.683Z,702.4
2023-02-25T04:34:34.918Z,703.2
2023-02-25T04:35:37.522Z,703.3
2023-02-25T04:36:40.037Z,702.7
2023-02-25T04:37:42.299Z,702.2
2023-02-25T04:38:44.819Z,701.7
2023-02-25T04:39:48.403Z,701.9
2023-02-25T04:40:50.604Z,702
2023-02-25T04:41:53.114Z,702.2
2023-02-25T04:42:55.628Z,702.2
2023-02-25T04:43:58.136Z,702.3
2023-02-25T04:45:00.340Z,702.5
2023-02-25T04:46:02.456Z,702.2
2023-02-25T04:47:04.689Z,702.2
2023-02-25T04:48:06.890Z,702.2
2023-02-25T04:49:09.102Z,702.3
2023-02-25T04:50:11.696Z,702.3
2023-02-25T04:51:14.320Z,702
2023-02-25T04:52:16.593Z,702
2023-02-25T04:53:19.087Z,701.8
2023-02-25T04:54:21.373Z,701.9
2023-02-25T04:55:23.612Z,701.8
2023-02-25T04:56:26.783Z,701.4
2023-02-25T04:57:29.292Z,702.1
2023-02-25T04:58:31.787Z,702.1
2023-02-25T04:59:34.012Z,701.8
2023-02-25T05:00:36.508Z,701.5
2023-02-25T05:01:39.337Z,701.1
2023-02-25T05:02:41.859Z,700.9
2023-02-25T05:03:44.382Z,701.3
2023-02-25T05:04:47.261Z,700.8
2023-02-25T05:05:49.773Z,701.1
2023-02-25T05:06:52.093Z,701
2023-02-25T05:07:54.592Z,700.6
2023-02-25T05:08:57.100Z,700.8
2023-02-25T05:09:59.624Z,701
2023-02-25T05:11:02.134Z,700.7
2023-02-25T05:12:04.667Z,700.6
2023-02-25T05:13:07.193Z,699.7
2023-02-25T05:14:09.701Z,700.4
2023-02-25T05:15:12.246Z,700.3
2023-02-25T05:16:14.693Z,700.7
2023-02-25T05:17:17.350Z,699.5
2023-02-25T05:18:19.698Z,699.5
2023-02-25T05:19:22.202Z,699.6
2023-02-25T05:20:25.103Z,699.5
2023-02-25T05:21:27.654Z,699.6
2023-02-25T05:22:30.274Z,699.2
2023-02-25T05:23:32.763Z,699.6
2023-02-25T05:24:35.017Z,699.2
2023-02-25T05:25:37.539Z,699.7
2023-02-25T05:26:39.873Z,699.6
2023-02-25T05:27:42.385Z,699.4
2023-02-25T05:28:44.889Z,699.9
2023-02-25T05:29:47.727Z,699.8
2023-02-25T05:30:50.527Z,700.1
2023-02-25T05:31:54.151Z,699.8
2023-02-25T05:32:56.850Z,699.8
2023-02-25T05:33:59.368Z,700.1
2023-02-25T05:35:01.614Z,699.4
2023-02-25T05:36:04.154Z,700.1
2023-02-25T05:37:06.408Z,699.5
2023-02-25T05:38:08.990Z,699.4
2023-02-25T05:39:11.496Z,699.3
2023-02-25T05:40:14.236Z,698.8
2023-02-25T05:41:16.887Z,698.8
2023-02-25T05:42:19.385Z,698.6
2023-02-25T05:43:21.901Z,698.7
2023-02-25T05:44:23.864Z,698.7
2023-02-25T05:45:26.385Z,698.6
2023-02-25T05:46:30.000Z,698.6
2023-02-25T05:47:32.569Z,698.2
2023-02-25T05:48:35.106Z,698
2023-02-25T05:49:37.608Z,697.9
2023-02-25T05:50:40.481Z,698
2023-02-25T05:51:43.052Z,697.6
2023-02-25T05:52:45.406Z,697.7
2023-02-25T05:53:48.125Z,697.5
2023-02-25T05:54:50.654Z,697.8
2023-02-25T05:55:53.152Z,697.3
2023-02-25T05:56:55.375Z,697.2
2023-02-25T05:57:57.864Z,697.1
2023-02-25T05:59:00.373Z,697.3
2023-02-25T06:00:02.885Z,697.2
2023-02-25T06:01:05.415Z,697.4
2023-02-25T06:02:08.056Z,697.3
2023-02-25T06:03:10.763Z,697.2
2023-02-25T06:04:13.103Z,697.2
2023-02-25T06:05:15.694Z,697
2023-02-25T06:06:18.193Z,696.8
2023-02-25T06:07:20.681Z,696.5
2023-02-25T06:08:23.223Z,696.7
2023-02-25T06:09:25.810Z,696.2
2023-02-25T06:10:28.263Z,696.4
2023-02-25T06:11:30.543Z,696.4
2023-02-25T06:12:32.835Z,696.4
2023-02-25T06:13:35.429Z,696.4
2023-02-25T06:14:37.102Z,696.8
2023-02-25T06:15:39.613Z,696.9
2023-02-25T06:16:42.474Z,696.7
2023-02-25T06:17:44.998Z,696.5
2023-02-25T06:18:47.515Z,696.8
2023-02-25T06:19:49.514Z,696.6
2023-02-25T06:20:52.006Z,697
2023-02-25T06:21:54.497Z,696.2
2023-02-25T06:22:56.992Z,696.6
2023-02-25T06:23:59.523Z,696.4
2023-02-25T06:25:02.164Z,696.4
2023-02-25T06:26:04.715Z,696.3
2023-02-25T06:27:07.240Z,695.6
2023-02-25T06:28:09.768Z,695.9
2023-02-25T06:29:12.284Z,695.9
2023-02-25T06:30:14.546Z,695.5
2023-02-25T06:31:17.202Z,695.8
2023-02-25T06:32:20.844Z,695.6
2023-02-25T06:33:23.402Z,696
2023-02-25T06:34:25.356Z,696.1
2023-02-25T06:35:27.315Z,695.9
2023-02-25T06:36:29.539Z,696.2
2023-02-25T06:37:32.027Z,696
2023-02-25T06:38:34.280Z,695.2
2023-02-25T06:39:36.799Z,695.4
2023-02-25T06:40:39.424Z,694.8
2023-02-25T06:41:41.924Z,694.9
2023-02-25T06:42:44.438Z,695.1
2023-02-25T06:43:46.702Z,694.9
2023-02-25T06:44:48.955Z,694.5
2023-02-25T06:45:51.645Z,694.3
2023-02-25T06:46:54.179Z,694.6
2023-02-25T06:47:56.751Z,694
2023-02-25T06:48:59.005Z,694
2023-02-25T06:51:06.476Z,693.8
2023-02-25T06:52:08.512Z,694.3
2023-02-25T06:53:11.020Z,694.1
2023-02-25T06:54:13.530Z,694
2023-02-25T06:55:15.832Z,693.9
2023-02-25T06:56:18.458Z,694.6
2023-02-25T06:57:20.973Z,694
2023-02-25T06:58:23.196Z,694.2
2023-02-25T06:59:25.427Z,693.7
2023-02-25T07:00:28.076Z,693.7
2023-02-25T07:01:30.826Z,693.8
2023-02-25T07:02:33.424Z,693.2
2023-02-25T07:03:35.966Z,693.4
2023-02-25T07:04:38.379Z,693.6
2023-02-25T07:05:40.890Z,693.9
2023-02-25T07:06:43.129Z,694
2023-02-25T07:07:45.639Z,694.1
2023-02-25T07:08:48.138Z,693.4
2023-02-25T07:09:50.656Z,693.6
2023-02-25T07:10:53.154Z,693.8
2023-02-25T07:11:55.757Z,693.9
2023-02-25T07:12:58.249Z,693.6
2023-02-25T07:14:00.498Z,693.8
2023-02-25T07:15:03.225Z,693.7
2023-02-25T07:16:05.584Z,693.6
2023-02-25T07:17:08.122Z,693.2
2023-02-25T07:18:10.444Z,693.5
2023-02-25T07:19:12.967Z,693.8
2023-02-25T07:20:14.927Z,693.2
2023-02-25T07:21:17.566Z,693.1
2023-02-25T07:22:20.186Z,692.7
2023-02-25T07:23:22.801Z,693
2023-02-25T07:24:25.305Z,693.3
2023-02-25T07:25:28.001Z,693
2023-02-25T07:26:30.714Z,693.1
2023-02-25T07:27:33.342Z,693.6
2023-02-25T07:28:35.586Z,693.5
2023-02-25T07:29:38.086Z,693.4
2023-02-25T07:30:40.827Z,693.6
2023-02-25T07:31:44.822Z,693.4
2023-02-25T07:32:48.455Z,693.9
2023-02-25T07:33:50.507Z,693.9
2023-02-25T07:34:53.061Z,694
2023-02-25T07:35:55.563Z,694
2023-02-25T07:36:58.077Z,694
2023-02-25T07:38:00.732Z,694.3
2023-02-25T07:39:02.965Z,693.9
2023-02-25T07:40:05.508Z,694
2023-02-25T07:41:08.078Z,694.1
2023-02-25T07:42:10.301Z,694.2
2023-02-25T07:43:12.919Z,694.3
2023-02-25T07:44:15.162Z,693.9
2023-02-25T07:45:17.144Z,693.8
2023-02-25T07:46:19.954Z,693.8
2023-02-25T07:47:22.521Z,694.1
2023-02-25T07:48:24.745Z,693.8
2023-02-25T07:49:26.995Z,693.5
2023-02-25T07:50:29.715Z,693.9
2023-02-25T07:51:32.246Z,692.8
2023-02-25T07:52:34.777Z,693.4
2023-02-25T07:53:37.009Z,693.1
2023-02-25T07:54:39.540Z,693.5
2023-02-25T07:55:42.062Z,693.5
2023-02-25T07:56:44.606Z,693.5
2023-02-25T07:57:46.832Z,693
2023-02-25T07:58:49.421Z,694
2023-02-25T07:59:51.690Z,693.4
2023-02-25T08:00:53.947Z,693.6
2023-02-25T08:01:56.500Z,693.2
2023-02-25T08:02:59.331Z,693
2023-02-25T08:04:02.005Z,693.2
2023-02-25T08:05:04.508Z,693.6
2023-02-25T08:06:06.736Z,693.2
2023-02-25T08:07:08.957Z,693.7
2023-02-25T08:08:11.736Z,693.3
2023-02-25T08:09:14.474Z,694
2023-02-25T08:10:16.674Z,694.2
2023-02-25T08:11:18.609Z,694.4
2023-02-25T08:12:21.129Z,694.2
2023-02-25T08:13:23.673Z,694.3
2023-02-25T08:14:26.397Z,694.4
2023-02-25T08:15:28.919Z,694.7
2023-02-25T08:16:31.428Z,694.4
2023-02-25T08:17:34.052Z,694.3
2023-02-25T08:18:36.631Z,694.3
2023-02-25T08:19:39.184Z,694.3
2023-02-25T08:20:41.714Z,694.4
2023-02-25T08:21:44.215Z,694.4
2023-02-25T08:22:46.731Z,694.6
2023-02-25T08:23:49.211Z,694.6
2023-02-25T08:24:51.716Z,695.1
2023-02-25T08:25:54.244Z,695
2023-02-25T08:26:56.822Z,694.9
2023-02-25T08:27:59.057Z,695
2023-02-25T08:29:01.651Z,694.8
2023-02-25T08:30:03.980Z,695.1
2023-02-25T08:31:07.099Z,694.9
2023-02-25T08:32:10.517Z,695.7
2023-02-25T08:33:12.872Z,695.7
2023-02-25T08:34:15.382Z,696.1
2023-02-25T08:35:17.632Z,695.2
2023-02-25T08:36:19.856Z,695.5
2023-02-25T08:37:22.354Z,695.7
2023-02-25T08:38:24.878Z,695.3
2023-02-25T08:39:27.255Z,695.2
2023-02-25T08:40:29.753Z,695
2023-02-25T08:41:32.354Z,694.8
2023-02-25T08:42:34.578Z,694.4
2023-02-25T08:43:37.096Z,694.7
2023-02-25T08:44:39.325Z,694.6
2023-02-25T08:45:41.645Z,694.9
2023-02-25T08:46:44.460Z,694.6
2023-02-25T08:47:47.064Z,694.4
2023-02-25T08:48:49.603Z,694.8
2023-02-25T08:49:51.930Z,695.1
2023-02-25T08:50:54.693Z,694.7
2023-02-25T08:51:57.216Z,694.5
2023-02-25T08:52:59.456Z,694.5
2023-02-25T08:54:01.802Z,694.1
2023-02-25T08:55:04.040Z,694.1
2023-02-25T08:56:06.545Z,693.9
2023-02-25T08:57:08.770Z,694.2
2023-02-25T08:58:10.996Z,694.2
2023-02-25T08:59:13.531Z,694
2023-02-25T09:00:16.052Z,694
2023-02-25T09:01:19.309Z,694.2
2023-02-25T09:02:21.371Z,694
2023-02-25T09:03:23.608Z,693.7
2023-02-25T09:04:26.521Z,694.3
2023-02-25T09:05:29.049Z,694
2023-02-25T09:06:31.551Z,694
2023-02-25T09:07:33.785Z,694.3
2023-02-25T09:08:36.303Z,693.9
2023-02-25T09:09:38.813Z,694.3
2023-02-25T09:11:46.033Z,694.1
2023-02-25T09:12:48.277Z,693.9
2023-02-25T09:13:50.872Z,694.3
2023-02-25T09:14:53.437Z,693.8
2023-02-25T09:15:55.672Z,694.4
2023-02-25T09:16:58.681Z,694.4
2023-02-25T09:18:02.253Z,694.4
2023-02-25T09:19:04.481Z,694
2023-02-25T09:20:06.791Z,693.8
2023-02-25T09:21:09.049Z,694
2023-02-25T09:22:11.572Z,693.8
2023-02-25T09:23:14.079Z,693.8
2023-02-25T09:24:16.302Z,693.4
2023-02-25T09:25:18.520Z,693.6
2023-02-25T09:26:20.780Z,693.7
2023-02-25T09:27:23.015Z,693.6
2023-02-25T09:28:25.857Z,693.3
2023-02-25T09:29:28.440Z,692.9
2023-02-25T09:30:30.948Z,693.3
2023-02-25T09:31:34.251Z,693.2
2023-02-25T09:32:38.086Z,693.1
2023-02-25T09:33:40.397Z,693
2023-02-25T09:34:42.628Z,693.2
2023-02-25T09:35:45.219Z,693.9
2023-02-25T09:36:47.765Z,694.1
2023-02-25T09:37:50.011Z,694.2
2023-02-25T09:38:51.394Z,694.5
2023-02-25T09:39:53.363Z,694
2023-02-25T09:40:55.562Z,695
2023-02-25T09:41:58.119Z,694.7
2023-02-25T09:43:00.397Z,694.7
2023-02-25T09:44:02.936Z,695.1
2023-02-25T09:45:05.555Z,695
2023-02-25T09:46:08.467Z,695.2
2023-02-25T09:47:10.429Z,694.6
2023-02-25T09:48:13.028Z,694.6
2023-02-25T09:49:15.310Z,694.3
2023-02-25T09:50:18.026Z,694.3
2023-02-25T09:51:20.707Z,695.1
2023-02-25T09:52:23.011Z,694.8
2023-02-25T09:53:25.532Z,694.9
2023-02-25T09:54:28.040Z,695.5
2023-02-25T09:55:30.574Z,695.1
2023-02-25T09:56:33.091Z,695.4
2023-02-25T09:57:35.664Z,695.6
2023-02-25T09:58:37.909Z,695.4
2023-02-25T09:59:40.424Z,695.2
2023-02-25T10:00:42.394Z,695.1
2023-02-25T10:01:44.951Z,694.9
2023-02-25T10:02:48.030Z,694.9
2023-02-25T10:03:50.457Z,695
2023-02-25T10:04:52.673Z,695
2023-02-25T10:05:55.194Z,694.8
2023-02-25T10:06:57.466Z,694.2
2023-02-25T10:07:59.967Z,694.1
2023-02-25T10:09:02.206Z,694
2023-02-25T10:10:04.487Z,694.5
2023-02-25T10:11:06.768Z,694.1
2023-02-25T10:12:09.266Z,694.1
2023-02-25T10:13:11.787Z,694.1
2023-02-25T10:14:14.290Z,694.1
2023-02-25T10:15:16.579Z,693.8
2023-02-25T10:16:18.970Z,693.9
2023-02-25T10:17:21.485Z,694.3
2023-02-25T10:18:23.728Z,693.9
2023-02-25T10:19:26.382Z,694
2023-02-25T10:20:28.890Z,694
2023-02-25T10:21:31.417Z,694
2023-02-25T10:22:33.959Z,694.3
2023-02-25T10:23:36.190Z,694.1
2023-02-25T10:24:38.699Z,694.5
2023-02-25T10:25:40.642Z,694.6
2023-02-25T10:26:42.888Z,693.9
2023-02-25T10:27:45.455Z,694
2023-02-25T10:28:47.980Z,695
2023-02-25T10:29:49.983Z,694.6
2023-02-25T10:30:53.132Z,694.6
2023-02-25T10:31:56.861Z,694.9
2023-02-25T10:32:59.330Z,695
2023-02-25T10:34:04.777Z,695.2
2023-02-25T10:35:07.397Z,694.7
2023-02-25T10:36:09.991Z,694.8
2023-02-25T10:37:11.923Z,695.4
2023-02-25T10:38:14.506Z,695
2023-02-25T10:39:16.844Z,694.6
2023-02-25T10:40:19.602Z,694.8
2023-02-25T10:41:23.388Z,694.9
2023-02-25T10:42:26.116Z,695.2
2023-02-25T10:43:28.435Z,694.9
2023-02-25T10:44:30.684Z,695.5
2023-02-25T10:45:33.331Z,695.6
2023-02-25T10:46:36.467Z,696
2023-02-25T10:47:38.741Z,695.9
2023-02-25T10:48:41.290Z,696.2
2023-02-25T10:49:43.254Z,695.9
2023-02-25T10:51:50.831Z,695.6
2023-02-25T10:52:53.456Z,696.3
2023-02-25T10:53:56.090Z,696.4
2023-02-25T10:54:58.304Z,696.4
2023-02-25T10:56:00.828Z,696.2
2023-02-25T10:57:03.465Z,696.4
2023-02-25T10:58:05.797Z,696.5
2023-02-25T10:59:08.060Z,696.5
2023-02-25T11:00:10.308Z,696.8
2023-02-25T11:01:13.149Z,697.2
2023-02-25T11:02:15.841Z,697.1
2023-02-25T11:03:18.120Z,697.4
2023-02-25T11:04:20.335Z,697.5
2023-02-25T11:05:22.855Z,697.4
2023-02-25T11:06:25.556Z,697.9
2023-02-25T11:07:28.209Z,698
2023-02-25T11:08:30.730Z,698.4
2023-02-25T11:09:32.730Z,698.4
2023-02-25T11:10:34.995Z,698.4
2023-02-25T11:11:37.243Z,698.6
2023-02-25T11:12:39.194Z,698.2
2023-02-25T11:13:41.752Z,698.5
2023-02-25T11:14:44.369Z,698.5
2023-02-25T11:15:48.949Z,698.6
2023-02-25T11:16:51.458Z,698.4
2023-02-25T11:17:53.723Z,699.1
2023-02-25T11:18:55.419Z,699.1
2023-02-25T11:19:57.946Z,699.4
2023-02-25T11:20:59.933Z,699.4
2023-02-25T11:22:02.190Z,699.6
2023-02-25T11:23:04.526Z,700
2023-02-25T11:24:07.061Z,699.8
2023-02-25T11:25:09.425Z,699.9
2023-02-25T11:26:11.954Z,700.1
2023-02-25T11:27:14.173Z,700
2023-02-25T11:28:16.712Z,700.1
2023-02-25T11:29:19.221Z,700.1
2023-02-25T11:30:21.806Z,699.6
2023-02-25T11:31:26.870Z,699.4
2023-02-25T11:32:30.569Z,700.4
2023-02-25T11:33:32.865Z,700
2023-02-25T11:34:35.426Z,700.9
2023-02-25T11:35:37.679Z,700.3
2023-02-25T11:36:39.920Z,700
2023-02-25T11:38:47.205Z,699.6
2023-02-25T11:39:49.711Z,699.5
2023-02-25T11:40:51.999Z,700.5
2023-02-25T11:41:54.224Z,700.4
2023-02-25T11:42:56.720Z,700.6
2023-02-25T11:44:01.706Z,699.6
2023-02-25T11:45:06.922Z,700.6
2023-02-25T11:46:09.708Z,700.6
2023-02-25T11:47:11.954Z,700.1
2023-02-25T11:48:14.178Z,699.9
2023-02-25T11:49:16.407Z,700.8
2023-02-25T11:50:19.120Z,700.4
2023-02-25T11:51:21.361Z,700.5
2023-02-25T11:52:23.615Z,700.6
2023-02-25T11:53:26.073Z,700.5
2023-02-25T11:54:28.425Z,701.7
2023-02-25T11:55:30.658Z,700.9
2023-02-25T11:56:32.932Z,701.1
2023-02-25T11:57:35.163Z,701.2
2023-02-25T11:58:37.696Z,701.7
2023-02-25T11:59:40.002Z,701.8
2023-02-25T12:00:42.269Z,701.9
2023-02-25T12:01:44.235Z,702.3
2023-02-25T12:02:46.820Z,701.9
2023-02-25T12:03:49.111Z,702.5
2023-02-25T12:04:51.636Z,702.9
2023-02-25T12:05:54.525Z,701.8
2023-02-25T12:06:56.800Z,702.4
2023-02-25T12:09:04.026Z,702.5
2023-02-25T12:10:06.690Z,702.6
2023-02-25T12:11:09.225Z,702.7
2023-02-25T12:12:11.776Z,702.8
2023-02-25T12:13:14.295Z,702.2
2023-02-25T12:14:16.558Z,702.7
2023-02-25T12:15:19.091Z,702.5
2023-02-25T12:16:22.544Z,702.7
2023-02-25T12:17:24.969Z,703.1
2023-02-25T12:18:27.558Z,703.4
2023-02-25T12:19:29.827Z,703.5
2023-02-25T12:20:32.116Z,703.2
2023-02-25T12:21:34.352Z,703.1
2023-02-25T12:22:36.626Z,703.2
2023-02-25T12:23:38.858Z,703.7
2023-02-25T12:24:40.817Z,703.5
2023-02-25T12:25:43.426Z,703.1
2023-02-25T12:26:45.665Z,703.2
2023-02-25T12:27:47.914Z,703.3
2023-02-25T12:28:51.935Z,702.9
2023-02-25T12:29:54.186Z,703
2023-02-25T12:30:57.108Z,702.7
2023-02-25T12:32:00.421Z,703.6
2023-02-25T12:33:03.027Z,702.8
2023-02-25T12:34:04.955Z,703.1
2023-02-25T12:35:07.501Z,703.4
2023-02-25T12:36:10.028Z,703.2
2023-02-25T12:37:12.561Z,703.5
2023-02-25T12:38:14.778Z,703.1
2023-02-25T12:39:17.330Z,704
2023-02-25T12:40:19.851Z,703.8
2023-02-25T12:41:23.407Z,704.6
2023-02-25T12:42:25.810Z,704.4
2023-02-25T12:43:28.096Z,704.2
2023-02-25T12:44:30.327Z,703.4
2023-02-25T12:45:33.045Z,703.9
2023-02-25T12:46:35.345Z,703.5
2023-02-25T12:47:37.896Z,703.3
2023-02-25T12:48:40.137Z,703.2
2023-02-25T12:49:42.639Z,702.5
2023-02-25T12:50:44.861Z,702.6
2023-02-25T12:51:47.363Z,703
2023-02-25T12:52:49.861Z,702.6
2023-02-25T12:53:52.377Z,703.2
2023-02-25T12:54:54.661Z,703
2023-02-25T12:55:57.168Z,703.1
2023-02-25T12:56:59.811Z,702.5
2023-02-25T12:58:02.353Z,702.7
2023-02-25T12:59:04.915Z,702.6
2023-02-25T13:00:07.464Z,702.5
2023-02-25T13:01:10.399Z,702.8
2023-02-25T13:02:12.936Z,702.7
2023-02-25T13:03:15.478Z,702.4
2023-02-25T13:04:18.294Z,702.7
2023-02-25T13:05:20.600Z,702.6
2023-02-25T13:06:22.840Z,703.5
2023-02-25T13:07:25.072Z,702.5
2023-02-25T13:08:27.313Z,703.1
2023-02-25T13:09:29.293Z,703
2023-02-25T13:10:31.831Z,704.1
2023-02-25T13:12:40.016Z,703.7
2023-02-25T13:13:42.531Z,703.5
2023-02-25T13:14:45.061Z,703.7
2023-02-25T13:15:47.278Z,703.5
2023-02-25T13:16:50.106Z,703.2
2023-02-25T13:17:52.359Z,703.8
2023-02-25T13:18:54.866Z,703.9
2023-02-25T13:19:57.104Z,703.8
2023-02-25T13:20:59.326Z,703.6
2023-02-25T13:22:01.831Z,703.1
2023-02-25T13:23:03.803Z,703.4
2023-02-25T13:24:06.361Z,703.9
2023-02-25T13:25:08.854Z,703.9
2023-02-25T13:26:11.364Z,703.3
2023-02-25T13:27:13.586Z,703.7
2023-02-25T13:28:16.406Z,703.3
2023-02-25T13:29:18.616Z,704.2
2023-02-25T13:30:20.879Z,703.8
2023-02-25T13:31:25.579Z,704.3
2023-02-25T13:32:29.148Z,704
2023-02-25T13:33:31.731Z,704.1
2023-02-25T13:35:38.961Z,703.7
2023-02-25T13:36:41.214Z,704.2
2023-02-25T13:37:43.752Z,704.3
2023-02-25T13:38:45.970Z,704.1
2023-02-25T13:39:47.902Z,704.2
2023-02-25T13:40:50.113Z,703.6
2023-02-25T13:41:52.407Z,703.5
2023-02-25T13:42:54.952Z,703.5
2023-02-25T13:43:57.548Z,703.5
2023-02-25T13:44:59.817Z,703.7